sensor_id;sensor_type;location;lat;lon;timestamp;temperature;humidity
75688;HTU21D;64300;45.034;38.910;2022-12-29T00:02:11;3.73;116.42
75688;HTU21D;64300;45.034;38.910;2022-12-29T00:04:37;3.73;116.41
75688;HTU21D;64300;45.034;38.910;2022-12-29T00:07:04;3.74;116.43
75688;HTU21D;64300;45.034;38.910;2022-12-29T00:09:30;3.72;116.29
75688;HTU21D;64300;45.034;38.910;2022-12-29T00:11:57;3.68;116.20
75688;HTU21D;64300;45.034;38.910;2022-12-29T00:14:23;3.63;116.24
75688;HTU21D;64300;45.034;38.910;2022-12-29T00:17:07;3.61;116.28
75688;HTU21D;64300;45.034;38.910;2022-12-29T00:19:33;3.59;116.23
75688;HTU21D;64300;45.034;38.910;2022-12-29T00:22:18;3.53;116.10
75688;HTU21D;64300;45.034;38.910;2022-12-29T00:25:03;3.44;116.00
75688;HTU21D;64300;45.034;38.910;2022-12-29T00:27:47;3.35;116.09
75688;HTU21D;64300;45.034;38.910;2022-12-29T00:30:32;3.32;116.49
75688;HTU21D;64300;45.034;38.910;2022-12-29T00:33:18;3.31;117.02
75688;HTU21D;64300;45.034;38.910;2022-12-29T00:38:41;3.32;117.21
75688;HTU21D;64300;45.034;38.910;2022-12-29T00:41:26;3.32;117.34
75688;HTU21D;64300;45.034;38.910;2022-12-29T00:44:12;3.31;117.30
75688;HTU21D;64300;45.034;38.910;2022-12-29T00:46:40;3.29;117.14
75688;HTU21D;64300;45.034;38.910;2022-12-29T00:49:09;3.24;116.83
75688;HTU21D;64300;45.034;38.910;2022-12-29T00:51:55;3.13;116.49
75688;HTU21D;64300;45.034;38.910;2022-12-29T00:54:22;3.03;116.33
75688;HTU21D;64300;45.034;38.910;2022-12-29T00:56:48;2.94;116.37
75688;HTU21D;64300;45.034;38.910;2022-12-29T00:59:16;2.82;116.63
75688;HTU21D;64300;45.034;38.910;2022-12-29T01:01:42;2.75;117.11
75688;HTU21D;64300;45.034;38.910;2022-12-29T01:04:09;2.71;117.40
75688;HTU21D;64300;45.034;38.910;2022-12-29T01:06:37;2.68;117.66
75688;HTU21D;64300;45.034;38.910;2022-12-29T01:09:04;2.66;117.68
75688;HTU21D;64300;45.034;38.910;2022-12-29T01:11:49;2.62;117.74
75688;HTU21D;64300;45.034;38.910;2022-12-29T01:14:16;2.59;117.84
75688;HTU21D;64300;45.034;38.910;2022-12-29T01:16:42;2.57;118.03
75688;HTU21D;64300;45.034;38.910;2022-12-29T01:19:08;2.55;118.02
75688;HTU21D;64300;45.034;38.910;2022-12-29T01:21:35;2.51;118.02
75688;HTU21D;64300;45.034;38.910;2022-12-29T01:24:01;2.49;118.26
75688;HTU21D;64300;45.034;38.910;2022-12-29T01:26:30;2.46;118.34
75688;HTU21D;64300;45.034;38.910;2022-12-29T01:28:56;2.43;118.40
75688;HTU21D;64300;45.034;38.910;2022-12-29T01:31:22;2.40;118.33
75688;HTU21D;64300;45.034;38.910;2022-12-29T01:33:48;2.35;118.31
75688;HTU21D;64300;45.034;38.910;2022-12-29T01:36:15;2.30;118.24
75688;HTU21D;64300;45.034;38.910;2022-12-29T01:38:43;2.25;118.23
75688;HTU21D;64300;45.034;38.910;2022-12-29T01:41:11;2.21;118.28
75688;HTU21D;64300;45.034;38.910;2022-12-29T01:48:48;2.07;118.46
75688;HTU21D;64300;45.034;38.910;2022-12-29T01:51:15;2.03;118.57
75688;HTU21D;64300;45.034;38.910;2022-12-29T01:53:43;1.98;118.67
75688;HTU21D;64300;45.034;38.910;2022-12-29T01:56:12;1.94;118.84
75688;HTU21D;64300;45.034;38.910;2022-12-29T01:58:42;1.92;118.99
75688;HTU21D;64300;45.034;38.910;2022-12-29T02:01:10;1.88;118.99
75688;HTU21D;64300;45.034;38.910;2022-12-29T02:03:36;1.86;118.99
75688;HTU21D;64300;45.034;38.910;2022-12-29T02:06:18;1.80;118.99
75688;HTU21D;64300;45.034;38.910;2022-12-29T02:08:47;1.72;118.99
75688;HTU21D;64300;45.034;38.910;2022-12-29T02:11:13;1.69;118.99
75688;HTU21D;64300;45.034;38.910;2022-12-29T02:13:39;1.67;118.99
75688;HTU21D;64300;45.034;38.910;2022-12-29T02:32:39;1.41;118.99
75688;HTU21D;64300;45.034;38.910;2022-12-29T02:35:43;1.39;118.99
75688;HTU21D;64300;45.034;38.910;2022-12-29T02:40:53;1.31;118.99
75688;HTU21D;64300;45.034;38.910;2022-12-29T02:43:38;1.26;118.99
75688;HTU21D;64300;45.034;38.910;2022-12-29T02:46:21;1.26;118.99
75688;HTU21D;64300;45.034;38.910;2022-12-29T02:52:16;1.25;118.99
75688;HTU21D;64300;45.034;38.910;2022-12-29T02:54:43;1.26;118.99
75688;HTU21D;64300;45.034;38.910;2022-12-29T02:59:53;1.28;118.99
75688;HTU21D;64300;45.034;38.910;2022-12-29T03:13:12;1.22;118.99
75688;HTU21D;64300;45.034;38.910;2022-12-29T03:16:20;1.19;118.99
75688;HTU21D;64300;45.034;38.910;2022-12-29T03:21:39;1.16;118.99
75688;HTU21D;64300;45.034;38.910;2022-12-29T03:24:34;1.16;118.99
75688;HTU21D;64300;45.034;38.910;2022-12-29T03:27:05;1.13;118.99
75688;HTU21D;64300;45.034;38.910;2022-12-29T03:33:01;1.10;118.99
75688;HTU21D;64300;45.034;38.910;2022-12-29T03:35:32;1.09;118.99
75688;HTU21D;64300;45.034;38.910;2022-12-29T03:38:25;1.09;118.99
75688;HTU21D;64300;45.034;38.910;2022-12-29T03:40:59;1.09;118.99
75688;HTU21D;64300;45.034;38.910;2022-12-29T03:43:29;1.08;118.99
75688;HTU21D;64300;45.034;38.910;2022-12-29T03:45:56;1.08;118.99
75688;HTU21D;64300;45.034;38.910;2022-12-29T03:48:21;1.08;118.99
75688;HTU21D;64300;45.034;38.910;2022-12-29T03:50:49;1.07;118.99
75688;HTU21D;64300;45.034;38.910;2022-12-29T03:53:16;1.04;118.99
75688;HTU21D;64300;45.034;38.910;2022-12-29T03:55:42;1.04;118.99
75688;HTU21D;64300;45.034;38.910;2022-12-29T03:58:39;1.05;118.99
75688;HTU21D;64300;45.034;38.910;2022-12-29T04:01:16;1.02;118.99
75688;HTU21D;64300;45.034;38.910;2022-12-29T04:03:42;0.99;118.99
75688;HTU21D;64300;45.034;38.910;2022-12-29T04:06:09;0.98;118.99
75688;HTU21D;64300;45.034;38.910;2022-12-29T04:08:42;0.96;118.99
75688;HTU21D;64300;45.034;38.910;2022-12-29T04:11:08;0.94;118.99
75688;HTU21D;64300;45.034;38.910;2022-12-29T04:13:34;0.91;118.99
75688;HTU21D;64300;45.034;38.910;2022-12-29T04:16:00;0.88;118.99
75688;HTU21D;64300;45.034;38.910;2022-12-29T04:18:27;0.86;118.99
75688;HTU21D;64300;45.034;38.910;2022-12-29T04:20:52;0.83;118.99
75688;HTU21D;64300;45.034;38.910;2022-12-29T04:23:31;0.82;118.99
75688;HTU21D;64300;45.034;38.910;2022-12-29T04:25:58;0.80;118.99
75688;HTU21D;64300;45.034;38.910;2022-12-29T04:28:26;0.78;118.99
75688;HTU21D;64300;45.034;38.910;2022-12-29T04:31:05;0.75;118.99
75688;HTU21D;64300;45.034;38.910;2022-12-29T04:33:36;0.73;118.99
75688;HTU21D;64300;45.034;38.910;2022-12-29T04:36:03;0.72;118.99
75688;HTU21D;64300;45.034;38.910;2022-12-29T04:38:29;0.71;118.99
75688;HTU21D;64300;45.034;38.910;2022-12-29T04:40:59;0.72;118.99
75688;HTU21D;64300;45.034;38.910;2022-12-29T04:43:27;0.71;118.99
75688;HTU21D;64300;45.034;38.910;2022-12-29T04:46:13;0.71;118.99
75688;HTU21D;64300;45.034;38.910;2022-12-29T04:48:48;0.69;118.99
75688;HTU21D;64300;45.034;38.910;2022-12-29T04:51:26;0.69;118.99
75688;HTU21D;64300;45.034;38.910;2022-12-29T04:53:52;0.71;118.99
75688;HTU21D;64300;45.034;38.910;2022-12-29T04:56:18;0.69;118.99
75688;HTU21D;64300;45.034;38.910;2022-12-29T04:58:44;0.68;118.99
75688;HTU21D;64300;45.034;38.910;2022-12-29T05:01:10;0.68;118.99
75688;HTU21D;64300;45.034;38.910;2022-12-29T05:03:36;0.71;118.99
75688;HTU21D;64300;45.034;38.910;2022-12-29T05:06:02;0.71;118.99
75688;HTU21D;64300;45.034;38.910;2022-12-29T05:08:28;0.69;118.99
75688;HTU21D;64300;45.034;38.910;2022-12-29T05:10:56;0.72;118.99
75688;HTU21D;64300;45.034;38.910;2022-12-29T05:13:22;0.72;118.99
75688;HTU21D;64300;45.034;38.910;2022-12-29T05:15:52;0.75;118.99
75688;HTU21D;64300;45.034;38.910;2022-12-29T05:18:19;0.75;118.99
75688;HTU21D;64300;45.034;38.910;2022-12-29T05:20:46;0.77;118.99
75688;HTU21D;64300;45.034;38.910;2022-12-29T05:23:13;0.79;118.99
75688;HTU21D;64300;45.034;38.910;2022-12-29T05:25:40;0.81;118.99
75688;HTU21D;64300;45.034;38.910;2022-12-29T05:28:29;0.82;118.99
75688;HTU21D;64300;45.034;38.910;2022-12-29T05:31:05;0.86;118.99
75688;HTU21D;64300;45.034;38.910;2022-12-29T05:33:31;0.87;118.99
75688;HTU21D;64300;45.034;38.910;2022-12-29T05:36:02;0.90;118.99
75688;HTU21D;64300;45.034;38.910;2022-12-29T05:38:28;0.93;118.99
75688;HTU21D;64300;45.034;38.910;2022-12-29T05:40:54;0.96;118.99
75688;HTU21D;64300;45.034;38.910;2022-12-29T05:43:47;0.97;118.99
75688;HTU21D;64300;45.034;38.910;2022-12-29T05:46:31;1.01;118.99
75688;HTU21D;64300;45.034;38.910;2022-12-29T05:49:23;1.04;118.99
75688;HTU21D;64300;45.034;38.910;2022-12-29T05:51:57;1.08;118.99
75688;HTU21D;64300;45.034;38.910;2022-12-29T05:54:23;1.13;118.99
75688;HTU21D;64300;45.034;38.910;2022-12-29T05:56:49;1.22;118.99
75688;HTU21D;64300;45.034;38.910;2022-12-29T05:59:15;1.32;118.99
75688;HTU21D;64300;45.034;38.910;2022-12-29T06:01:43;1.40;118.99
75688;HTU21D;64300;45.034;38.910;2022-12-29T06:04:10;1.47;118.99
75688;HTU21D;64300;45.034;38.910;2022-12-29T06:06:37;1.53;118.99
75688;HTU21D;64300;45.034;38.910;2022-12-29T06:09:05;1.58;118.99
75688;HTU21D;64300;45.034;38.910;2022-12-29T06:11:30;1.67;118.99
75688;HTU21D;64300;45.034;38.910;2022-12-29T06:13:58;1.75;118.99
75688;HTU21D;64300;45.034;38.910;2022-12-29T06:16:24;1.81;118.99
75688;HTU21D;64300;45.034;38.910;2022-12-29T06:18:56;1.91;118.99
75688;HTU21D;64300;45.034;38.910;2022-12-29T06:21:22;1.97;118.99
75688;HTU21D;64300;45.034;38.910;2022-12-29T06:23:48;2.05;118.99
75688;HTU21D;64300;45.034;38.910;2022-12-29T06:26:13;2.12;118.99
75688;HTU21D;64300;45.034;38.910;2022-12-29T06:28:39;2.15;118.99
75688;HTU21D;64300;45.034;38.910;2022-12-29T06:31:09;2.22;118.99
75688;HTU21D;64300;45.034;38.910;2022-12-29T06:33:35;2.25;118.99
75688;HTU21D;64300;45.034;38.910;2022-12-29T06:36:01;2.30;118.99
75688;HTU21D;64300;45.034;38.910;2022-12-29T06:38:29;2.36;118.99
75688;HTU21D;64300;45.034;38.910;2022-12-29T06:40:55;2.41;118.99
75688;HTU21D;64300;45.034;38.910;2022-12-29T06:43:40;2.47;118.99
75688;HTU21D;64300;45.034;38.910;2022-12-29T06:46:21;2.55;118.99
75688;HTU21D;64300;45.034;38.910;2022-12-29T06:48:47;2.65;118.99
75688;HTU21D;64300;45.034;38.910;2022-12-29T06:51:13;2.76;118.99
75688;HTU21D;64300;45.034;38.910;2022-12-29T06:53:39;2.89;118.99
75688;HTU21D;64300;45.034;38.910;2022-12-29T06:56:05;3.04;118.99
75688;HTU21D;64300;45.034;38.910;2022-12-29T06:58:31;3.14;118.99
75688;HTU21D;64300;45.034;38.910;2022-12-29T07:00:58;3.24;118.99
75688;HTU21D;64300;45.034;38.910;2022-12-29T07:03:24;3.36;118.99
75688;HTU21D;64300;45.034;38.910;2022-12-29T07:05:50;3.50;118.99
75688;HTU21D;64300;45.034;38.910;2022-12-29T07:08:15;3.64;118.99
75688;HTU21D;64300;45.034;38.910;2022-12-29T07:10:41;3.78;118.99
75688;HTU21D;64300;45.034;38.910;2022-12-29T07:13:07;3.87;118.99
75688;HTU21D;64300;45.034;38.910;2022-12-29T07:15:34;3.93;118.99
75688;HTU21D;64300;45.034;38.910;2022-12-29T07:18:00;3.99;118.99
75688;HTU21D;64300;45.034;38.910;2022-12-29T07:20:26;4.04;118.99
75688;HTU21D;64300;45.034;38.910;2022-12-29T07:22:55;4.14;118.99
75688;HTU21D;64300;45.034;38.910;2022-12-29T07:25:21;4.23;118.99
75688;HTU21D;64300;45.034;38.910;2022-12-29T07:27:48;4.32;118.99
75688;HTU21D;64300;45.034;38.910;2022-12-29T07:30:14;4.42;118.99
75688;HTU21D;64300;45.034;38.910;2022-12-29T07:32:40;4.50;118.99
75688;HTU21D;64300;45.034;38.910;2022-12-29T07:35:07;4.51;118.99
75688;HTU21D;64300;45.034;38.910;2022-12-29T07:37:33;4.52;118.99
75688;HTU21D;64300;45.034;38.910;2022-12-29T07:40:00;4.53;118.69
75688;HTU21D;64300;45.034;38.910;2022-12-29T07:42:27;4.59;118.32
75688;HTU21D;64300;45.034;38.910;2022-12-29T07:44:53;4.61;118.03
75688;HTU21D;64300;45.034;38.910;2022-12-29T07:47:50;4.65;117.89
75688;HTU21D;64300;45.034;38.910;2022-12-29T07:50:16;4.72;117.86
75688;HTU21D;64300;45.034;38.910;2022-12-29T07:52:44;4.79;117.75
75688;HTU21D;64300;45.034;38.910;2022-12-29T07:55:12;4.84;117.53
75688;HTU21D;64300;45.034;38.910;2022-12-29T07:57:38;4.92;117.43
75688;HTU21D;64300;45.034;38.910;2022-12-29T08:00:04;5.02;117.71
75688;HTU21D;64300;45.034;38.910;2022-12-29T08:02:37;5.13;117.73
75688;HTU21D;64300;45.034;38.910;2022-12-29T08:05:03;5.24;117.75
75688;HTU21D;64300;45.034;38.910;2022-12-29T08:07:30;5.37;117.85
75688;HTU21D;64300;45.034;38.910;2022-12-29T08:09:56;5.50;117.64
75688;HTU21D;64300;45.034;38.910;2022-12-29T08:12:23;5.63;117.59
75688;HTU21D;64300;45.034;38.910;2022-12-29T08:14:49;5.75;117.21
75688;HTU21D;64300;45.034;38.910;2022-12-29T08:17:15;5.83;116.58
75688;HTU21D;64300;45.034;38.910;2022-12-29T08:19:41;5.92;115.98
75688;HTU21D;64300;45.034;38.910;2022-12-29T08:22:08;6.00;115.60
75688;HTU21D;64300;45.034;38.910;2022-12-29T08:24:34;6.06;115.39
75688;HTU21D;64300;45.034;38.910;2022-12-29T08:26:59;6.08;115.20
75688;HTU21D;64300;45.034;38.910;2022-12-29T08:29:25;6.08;114.73
75688;HTU21D;64300;45.034;38.910;2022-12-29T08:31:51;6.10;114.08
75688;HTU21D;64300;45.034;38.910;2022-12-29T08:34:17;6.10;113.45
75688;HTU21D;64300;45.034;38.910;2022-12-29T08:36:45;6.09;112.74
75688;HTU21D;64300;45.034;38.910;2022-12-29T08:39:11;6.08;112.11
75688;HTU21D;64300;45.034;38.910;2022-12-29T08:41:40;6.02;111.52
75688;HTU21D;64300;45.034;38.910;2022-12-29T08:44:06;5.97;111.14
75688;HTU21D;64300;45.034;38.910;2022-12-29T08:46:32;5.90;110.63
75688;HTU21D;64300;45.034;38.910;2022-12-29T08:48:58;5.82;110.11
75688;HTU21D;64300;45.034;38.910;2022-12-29T08:51:23;5.74;109.74
75688;HTU21D;64300;45.034;38.910;2022-12-29T08:53:49;5.66;109.76
75688;HTU21D;64300;45.034;38.910;2022-12-29T08:56:16;5.59;109.93
75688;HTU21D;64300;45.034;38.910;2022-12-29T08:58:48;5.52;109.97
75688;HTU21D;64300;45.034;38.910;2022-12-29T09:01:14;5.47;109.93
75688;HTU21D;64300;45.034;38.910;2022-12-29T09:03:40;5.41;110.33
75688;HTU21D;64300;45.034;38.910;2022-12-29T09:06:06;5.36;110.68
75688;HTU21D;64300;45.034;38.910;2022-12-29T09:08:36;5.33;111.00
75688;HTU21D;64300;45.034;38.910;2022-12-29T09:11:14;5.30;111.07
75688;HTU21D;64300;45.034;38.910;2022-12-29T09:13:41;5.25;111.00
75688;HTU21D;64300;45.034;38.910;2022-12-29T09:16:09;5.23;110.96
75688;HTU21D;64300;45.034;38.910;2022-12-29T09:18:35;5.22;111.13
75688;HTU21D;64300;45.034;38.910;2022-12-29T09:21:05;5.18;111.36
75688;HTU21D;64300;45.034;38.910;2022-12-29T09:23:32;5.17;111.59
75688;HTU21D;64300;45.034;38.910;2022-12-29T09:25:59;5.17;111.74
75688;HTU21D;64300;45.034;38.910;2022-12-29T09:28:25;5.21;111.58
75688;HTU21D;64300;45.034;38.910;2022-12-29T09:30:51;5.24;111.39
75688;HTU21D;64300;45.034;38.910;2022-12-29T09:33:17;5.26;111.31
75688;HTU21D;64300;45.034;38.910;2022-12-29T09:35:45;5.30;111.11
75688;HTU21D;64300;45.034;38.910;2022-12-29T09:38:14;5.35;110.98
75688;HTU21D;64300;45.034;38.910;2022-12-29T09:40:44;5.39;110.81
75688;HTU21D;64300;45.034;38.910;2022-12-29T09:48:31;5.48;110.52
75688;HTU21D;64300;45.034;38.910;2022-12-29T09:51:05;5.51;110.38
75688;HTU21D;64300;45.034;38.910;2022-12-29T09:53:48;5.55;110.00
75688;HTU21D;64300;45.034;38.910;2022-12-29T09:56:19;5.59;109.88
75688;HTU21D;64300;45.034;38.910;2022-12-29T09:58:58;5.61;109.59
75688;HTU21D;64300;45.034;38.910;2022-12-29T10:03:56;5.69;109.28
75688;HTU21D;64300;45.034;38.910;2022-12-29T10:21:02;5.89;107.47
75688;HTU21D;64300;45.034;38.910;2022-12-29T10:23:40;5.91;107.40
75688;HTU21D;64300;45.034;38.910;2022-12-29T10:26:16;5.96;107.36
75688;HTU21D;64300;45.034;38.910;2022-12-29T10:29:03;6.01;107.00
75688;HTU21D;64300;45.034;38.910;2022-12-29T10:31:44;6.05;106.72
75688;HTU21D;64300;45.034;38.910;2022-12-29T10:34:22;6.07;106.45
75688;HTU21D;64300;45.034;38.910;2022-12-29T10:36:58;6.08;105.97
75688;HTU21D;64300;45.034;38.910;2022-12-29T10:39:28;6.12;105.92
75688;HTU21D;64300;45.034;38.910;2022-12-29T10:44:36;6.19;105.62
75688;HTU21D;64300;45.034;38.910;2022-12-29T10:47:07;6.24;105.30
75688;HTU21D;64300;45.034;38.910;2022-12-29T10:49:41;6.30;105.11
75688;HTU21D;64300;45.034;38.910;2022-12-29T10:52:09;6.38;104.93
75688;HTU21D;64300;45.034;38.910;2022-12-29T10:59:44;6.90;105.08
75688;HTU21D;64300;45.034;38.910;2022-12-29T11:04:55;7.28;103.68
75688;HTU21D;64300;45.034;38.910;2022-12-29T11:07:23;7.35;102.24
75688;HTU21D;64300;45.034;38.910;2022-12-29T11:09:49;7.33;101.13
75688;HTU21D;64300;45.034;38.910;2022-12-29T11:12:29;7.30;100.17
75688;HTU21D;64300;45.034;38.910;2022-12-29T11:17:48;7.17;99.10
75688;HTU21D;64300;45.034;38.910;2022-12-29T11:20:36;7.11;98.80
75688;HTU21D;64300;45.034;38.910;2022-12-29T11:23:26;7.04;98.78
75688;HTU21D;64300;45.034;38.910;2022-12-29T11:26:17;7.02;98.68
75688;HTU21D;64300;45.034;38.910;2022-12-29T11:28:47;6.96;98.80
75688;HTU21D;64300;45.034;38.910;2022-12-29T11:31:29;6.93;98.72
75688;HTU21D;64300;45.034;38.910;2022-12-29T11:33:55;6.88;99.02
75688;HTU21D;64300;45.034;38.910;2022-12-29T11:36:22;6.83;98.90
75688;HTU21D;64300;45.034;38.910;2022-12-29T11:38:53;6.76;98.71
75688;HTU21D;64300;45.034;38.910;2022-12-29T11:41:26;6.71;98.55
75688;HTU21D;64300;45.034;38.910;2022-12-29T11:43:58;6.70;98.61
75688;HTU21D;64300;45.034;38.910;2022-12-29T11:46:28;6.70;98.39
75688;HTU21D;64300;45.034;38.910;2022-12-29T11:48:56;6.70;98.27
75688;HTU21D;64300;45.034;38.910;2022-12-29T11:51:29;6.71;98.15
75688;HTU21D;64300;45.034;38.910;2022-12-29T11:54:01;6.71;97.97
75688;HTU21D;64300;45.034;38.910;2022-12-29T11:56:40;6.72;97.74
75688;HTU21D;64300;45.034;38.910;2022-12-29T12:01:51;6.61;98.55
75688;HTU21D;64300;45.034;38.910;2022-12-29T12:04:26;6.59;98.35
75688;HTU21D;64300;45.034;38.910;2022-12-29T12:09:32;6.54;98.17
75688;HTU21D;64300;45.034;38.910;2022-12-29T12:12:01;6.53;98.07
75688;HTU21D;64300;45.034;38.910;2022-12-29T12:14:38;6.56;97.92
75688;HTU21D;64300;45.034;38.910;2022-12-29T12:17:51;6.56;97.69
75688;HTU21D;64300;45.034;38.910;2022-12-29T12:23:22;6.44;97.45
75688;HTU21D;64300;45.034;38.910;2022-12-29T12:26:00;6.39;97.42
75688;HTU21D;64300;45.034;38.910;2022-12-29T12:29:04;6.34;97.23
75688;HTU21D;64300;45.034;38.910;2022-12-29T12:34:39;6.19;97.17
75688;HTU21D;64300;45.034;38.910;2022-12-29T12:40:26;6.14;97.50
75688;HTU21D;64300;45.034;38.910;2022-12-29T12:48:59;6.07;98.00
75688;HTU21D;64300;45.034;38.910;2022-12-29T12:59:52;6.25;98.53
75688;HTU21D;64300;45.034;38.910;2022-12-29T13:11:12;6.36;97.91
75688;HTU21D;64300;45.034;38.910;2022-12-29T13:21:41;6.41;97.68
75688;HTU21D;64300;45.034;38.910;2022-12-29T13:24:21;6.44;97.51
75688;HTU21D;64300;45.034;38.910;2022-12-29T13:27:15;6.46;97.36
75688;HTU21D;64300;45.034;38.910;2022-12-29T13:32:42;6.48;97.05
75688;HTU21D;64300;45.034;38.910;2022-12-29T13:40:30;6.34;96.76
75688;HTU21D;64300;45.034;38.910;2022-12-29T13:43:00;6.33;96.78
75688;HTU21D;64300;45.034;38.910;2022-12-29T13:45:29;6.33;96.77
75688;HTU21D;64300;45.034;38.910;2022-12-29T13:48:17;6.33;96.49
75688;HTU21D;64300;45.034;38.910;2022-12-29T13:50:50;6.28;96.19
75688;HTU21D;64300;45.034;38.910;2022-12-29T13:53:49;6.19;95.94
75688;HTU21D;64300;45.034;38.910;2022-12-29T14:05:15;5.75;95.85
75688;HTU21D;64300;45.034;38.910;2022-12-29T14:08:04;5.64;96.08
75688;HTU21D;64300;45.034;38.910;2022-12-29T14:13:26;5.56;97.29
75688;HTU21D;64300;45.034;38.910;2022-12-29T14:15:54;5.54;97.55
75688;HTU21D;64300;45.034;38.910;2022-12-29T14:18:25;5.55;97.42
75688;HTU21D;64300;45.034;38.910;2022-12-29T14:28:44;5.62;97.15
75688;HTU21D;64300;45.034;38.910;2022-12-29T14:36:52;5.71;97.50
75688;HTU21D;64300;45.034;38.910;2022-12-29T14:42:00;5.82;97.52
75688;HTU21D;64300;45.034;38.910;2022-12-29T14:44:27;5.86;97.44
75688;HTU21D;64300;45.034;38.910;2022-12-29T14:49:24;5.91;97.07
75688;HTU21D;64300;45.034;38.910;2022-12-29T14:51:53;5.92;97.03
75688;HTU21D;64300;45.034;38.910;2022-12-29T14:57:06;5.98;96.88
75688;HTU21D;64300;45.034;38.910;2022-12-29T14:59:34;5.98;96.74
75688;HTU21D;64300;45.034;38.910;2022-12-29T15:02:05;6.02;96.70
75688;HTU21D;64300;45.034;38.910;2022-12-29T15:04:36;6.04;96.62
75688;HTU21D;64300;45.034;38.910;2022-12-29T15:07:07;6.05;96.48
75688;HTU21D;64300;45.034;38.910;2022-12-29T15:09:37;6.07;96.47
75688;HTU21D;64300;45.034;38.910;2022-12-29T15:14:50;6.14;96.55
75688;HTU21D;64300;45.034;38.910;2022-12-29T15:17:33;6.19;96.55
75688;HTU21D;64300;45.034;38.910;2022-12-29T15:20:14;6.20;96.58
75688;HTU21D;64300;45.034;38.910;2022-12-29T15:22:49;6.23;96.45
75688;HTU21D;64300;45.034;38.910;2022-12-29T15:25:18;6.26;96.40
75688;HTU21D;64300;45.034;38.910;2022-12-29T15:27:52;6.25;96.23
75688;HTU21D;64300;45.034;38.910;2022-12-29T15:30:19;6.25;96.23
75688;HTU21D;64300;45.034;38.910;2022-12-29T15:32:46;6.27;96.19
75688;HTU21D;64300;45.034;38.910;2022-12-29T15:35:27;6.27;96.06
75688;HTU21D;64300;45.034;38.910;2022-12-29T15:37:54;6.25;95.83
75688;HTU21D;64300;45.034;38.910;2022-12-29T15:45:44;6.11;95.51
75688;HTU21D;64300;45.034;38.910;2022-12-29T15:48:19;6.06;95.44
75688;HTU21D;64300;45.034;38.910;2022-12-29T15:50:47;6.01;95.49
75688;HTU21D;64300;45.034;38.910;2022-12-29T15:53:21;5.95;95.39
75688;HTU21D;64300;45.034;38.910;2022-12-29T15:55:51;5.85;95.39
75688;HTU21D;64300;45.034;38.910;2022-12-29T15:58:26;5.79;95.42
75688;HTU21D;64300;45.034;38.910;2022-12-29T16:01:00;5.71;95.60
75688;HTU21D;64300;45.034;38.910;2022-12-29T16:03:31;5.66;95.86
75688;HTU21D;64300;45.034;38.910;2022-12-29T16:06:09;5.63;96.14
75688;HTU21D;64300;45.034;38.910;2022-12-29T16:08:38;5.60;96.33
75688;HTU21D;64300;45.034;38.910;2022-12-29T16:11:21;5.60;96.52
75688;HTU21D;64300;45.034;38.910;2022-12-29T16:13:48;5.59;96.60
75688;HTU21D;64300;45.034;38.910;2022-12-29T16:16:30;5.57;96.64
75688;HTU21D;64300;45.034;38.910;2022-12-29T16:18:57;5.55;96.65
75688;HTU21D;64300;45.034;38.910;2022-12-29T16:21:28;5.55;96.63
75688;HTU21D;64300;45.034;38.910;2022-12-29T16:24:00;5.54;96.56
75688;HTU21D;64300;45.034;38.910;2022-12-29T16:26:27;5.52;96.56
75688;HTU21D;64300;45.034;38.910;2022-12-29T16:28:58;5.52;96.45
75688;HTU21D;64300;45.034;38.910;2022-12-29T16:34:11;5.41;96.35
75688;HTU21D;64300;45.034;38.910;2022-12-29T16:37:02;5.34;96.33
75688;HTU21D;64300;45.034;38.910;2022-12-29T16:39:35;5.23;96.34
75688;HTU21D;64300;45.034;38.910;2022-12-29T16:48:36;4.96;96.54
75688;HTU21D;64300;45.034;38.910;2022-12-29T16:51:28;4.83;96.63
75688;HTU21D;64300;45.034;38.910;2022-12-29T16:53:55;4.73;96.81
75688;HTU21D;64300;45.034;38.910;2022-12-29T16:56:24;4.64;97.06
75688;HTU21D;64300;45.034;38.910;2022-12-29T16:59:25;4.61;97.46
75688;HTU21D;64300;45.034;38.910;2022-12-29T17:01:55;4.59;97.92
75688;HTU21D;64300;45.034;38.910;2022-12-29T17:04:21;4.62;98.35
75688;HTU21D;64300;45.034;38.910;2022-12-29T17:06:47;4.67;98.61
75688;HTU21D;64300;45.034;38.910;2022-12-29T17:09:21;4.74;98.83
75688;HTU21D;64300;45.034;38.910;2022-12-29T17:11:58;4.83;99.03
75688;HTU21D;64300;45.034;38.910;2022-12-29T17:14:54;4.92;99.19
75688;HTU21D;64300;45.034;38.910;2022-12-29T17:17:42;5.01;99.23
75688;HTU21D;64300;45.034;38.910;2022-12-29T17:22:44;5.11;99.24
75688;HTU21D;64300;45.034;38.910;2022-12-29T17:25:15;5.20;99.25
75688;HTU21D;64300;45.034;38.910;2022-12-29T17:30:17;5.34;99.00
75688;HTU21D;64300;45.034;38.910;2022-12-29T17:33:08;5.41;98.93
75688;HTU21D;64300;45.034;38.910;2022-12-29T17:35:35;5.48;99.22
75688;HTU21D;64300;45.034;38.910;2022-12-29T17:38:01;5.50;99.13
75688;HTU21D;64300;45.034;38.910;2022-12-29T17:40:29;5.52;99.17
75688;HTU21D;64300;45.034;38.910;2022-12-29T17:42:57;5.60;99.09
75688;HTU21D;64300;45.034;38.910;2022-12-29T17:45:31;5.65;98.81
75688;HTU21D;64300;45.034;38.910;2022-12-29T17:47:57;5.68;98.68
75688;HTU21D;64300;45.034;38.910;2022-12-29T17:50:29;5.74;98.46
75688;HTU21D;64300;45.034;38.910;2022-12-29T17:52:58;5.79;98.34
75688;HTU21D;64300;45.034;38.910;2022-12-29T17:55:24;5.81;98.15
75688;HTU21D;64300;45.034;38.910;2022-12-29T17:57:51;5.86;98.03
75688;HTU21D;64300;45.034;38.910;2022-12-29T18:00:24;5.90;97.94
75688;HTU21D;64300;45.034;38.910;2022-12-29T18:03:00;5.94;97.75
75688;HTU21D;64300;45.034;38.910;2022-12-29T18:05:29;5.96;97.67
75688;HTU21D;64300;45.034;38.910;2022-12-29T18:07:57;5.97;97.55
75688;HTU21D;64300;45.034;38.910;2022-12-29T18:10:25;5.98;97.46
75688;HTU21D;64300;45.034;38.910;2022-12-29T18:12:58;6.01;97.41
75688;HTU21D;64300;45.034;38.910;2022-12-29T18:15:29;6.04;97.36
75688;HTU21D;64300;45.034;38.910;2022-12-29T18:18:12;6.07;97.32
75688;HTU21D;64300;45.034;38.910;2022-12-29T18:20:39;6.08;97.23
75688;HTU21D;64300;45.034;38.910;2022-12-29T18:23:06;6.08;97.20
75688;HTU21D;64300;45.034;38.910;2022-12-29T18:25:38;6.08;97.07
75688;HTU21D;64300;45.034;38.910;2022-12-29T18:28:05;6.09;96.98
75688;HTU21D;64300;45.034;38.910;2022-12-29T18:30:30;6.08;96.88
75688;HTU21D;64300;45.034;38.910;2022-12-29T18:32:56;6.07;96.70
75688;HTU21D;64300;45.034;38.910;2022-12-29T18:35:27;6.05;96.55
75688;HTU21D;64300;45.034;38.910;2022-12-29T18:37:55;6.02;96.52
75688;HTU21D;64300;45.034;38.910;2022-12-29T18:40:21;5.97;96.40
75688;HTU21D;64300;45.034;38.910;2022-12-29T18:42:47;5.94;96.34
75688;HTU21D;64300;45.034;38.910;2022-12-29T18:45:19;5.92;96.37
75688;HTU21D;64300;45.034;38.910;2022-12-29T18:47:46;5.91;96.49
75688;HTU21D;64300;45.034;38.910;2022-12-29T18:50:13;5.93;96.57